sensor_id;sensor_type;location;lat;lon;timestamp;P1;durP1;ratioP1;P2;durP2;ratioP2
56413;SDS011;42318;48.452;19.526;2022-12-18T00:00:03;6.53;;;4.57;;
56413;SDS011;42318;48.452;19.526;2022-12-18T00:07:36;6.47;;;4.35;;
56413;SDS011;42318;48.452;19.526;2022-12-18T00:15:07;6.60;;;3.97;;
56413;SDS011;42318;48.452;19.526;2022-12-18T00:22:38;7.97;;;4.70;;
56413;SDS011;42318;48.452;19.526;2022-12-18T00:30:09;7.55;;;4.70;;
56413;SDS011;42318;48.452;19.526;2022-12-18T00:37:41;6.05;;;4.00;;
56413;SDS011;42318;48.452;19.526;2022-12-18T00:45:12;7.40;;;3.92;;
56413;SDS011;42318;48.452;19.526;2022-12-18T00:52:43;8.50;;;5.13;;
56413;SDS011;42318;48.452;19.526;2022-12-18T01:00:14;6.25;;;3.78;;
56413;SDS011;42318;48.452;19.526;2022-12-18T01:07:46;6.10;;;3.67;;
56413;SDS011;42318;48.452;19.526;2022-12-18T01:15:17;5.93;;;3.78;;
56413;SDS011;42318;48.452;19.526;2022-12-18T01:22:48;6.07;;;3.42;;
56413;SDS011;42318;48.452;19.526;2022-12-18T01:30:19;6.63;;;4.22;;
56413;SDS011;42318;48.452;19.526;2022-12-18T01:37:53;4.82;;;3.92;;
56413;SDS011;42318;48.452;19.526;2022-12-18T01:45:26;5.88;;;3.85;;
56413;SDS011;42318;48.452;19.526;2022-12-18T01:53:15;6.18;;;3.15;;
56413;SDS011;42318;48.452;19.526;2022-12-18T02:00:48;6.18;;;4.10;;
56413;SDS011;42318;48.452;19.526;2022-12-18T02:08:20;6.65;;;3.88;;
56413;SDS011;42318;48.452;19.526;2022-12-18T02:16:06;5.28;;;4.03;;
56413;SDS011;42318;48.452;19.526;2022-12-18T02:24:12;5.97;;;3.78;;
56413;SDS011;42318;48.452;19.526;2022-12-18T02:31:54;5.80;;;3.50;;
56413;SDS011;42318;48.452;19.526;2022-12-18T02:39:32;5.63;;;3.65;;
56413;SDS011;42318;48.452;19.526;2022-12-18T02:47:04;6.25;;;3.85;;
56413;SDS011;42318;48.452;19.526;2022-12-18T02:54:45;5.35;;;2.95;;
56413;SDS011;42318;48.452;19.526;2022-12-18T03:02:38;5.95;;;3.50;;
56413;SDS011;42318;48.452;19.526;2022-12-18T03:10:17;3.97;;;3.08;;
56413;SDS011;42318;48.452;19.526;2022-12-18T03:17:59;4.95;;;3.03;;
56413;SDS011;42318;48.452;19.526;2022-12-18T03:25:36;4.90;;;3.25;;
56413;SDS011;42318;48.452;19.526;2022-12-18T03:33:17;5.63;;;3.33;;
56413;SDS011;42318;48.452;19.526;2022-12-18T03:48:47;5.33;;;3.13;;
56413;SDS011;42318;48.452;19.526;2022-12-18T03:56:23;5.82;;;3.47;;
56413;SDS011;42318;48.452;19.526;2022-12-18T04:04:00;3.95;;;2.95;;
56413;SDS011;42318;48.452;19.526;2022-12-18T04:11:32;4.82;;;3.15;;
56413;SDS011;42318;48.452;19.526;2022-12-18T04:19:03;4.85;;;3.22;;
56413;SDS011;42318;48.452;19.526;2022-12-18T04:26:34;5.32;;;3.30;;
56413;SDS011;42318;48.452;19.526;2022-12-18T04:34:05;4.35;;;2.85;;
56413;SDS011;42318;48.452;19.526;2022-12-18T04:41:36;4.63;;;2.70;;
56413;SDS011;42318;48.452;19.526;2022-12-18T04:49:06;4.32;;;2.65;;
56413;SDS011;42318;48.452;19.526;2022-12-18T04:56:37;4.63;;;2.70;;
56413;SDS011;42318;48.452;19.526;2022-12-18T05:04:08;4.47;;;3.03;;
56413;SDS011;42318;48.452;19.526;2022-12-18T05:11:39;4.20;;;2.70;;
56413;SDS011;42318;48.452;19.526;2022-12-18T05:19:10;4.45;;;2.70;;
56413;SDS011;42318;48.452;19.526;2022-12-18T05:26:40;3.28;;;2.70;;
56413;SDS011;42318;48.452;19.526;2022-12-18T05:34:11;4.90;;;2.83;;
56413;SDS011;42318;48.452;19.526;2022-12-18T05:41:42;4.72;;;2.92;;
56413;SDS011;42318;48.452;19.526;2022-12-18T05:49:13;4.32;;;2.72;;
56413;SDS011;42318;48.452;19.526;2022-12-18T05:56:43;3.67;;;2.47;;
56413;SDS011;42318;48.452;19.526;2022-12-18T06:04:14;3.97;;;2.85;;
56413;SDS011;42318;48.452;19.526;2022-12-18T06:11:45;5.07;;;2.75;;
56413;SDS011;42318;48.452;19.526;2022-12-18T06:19:16;4.45;;;2.60;;
56413;SDS011;42318;48.452;19.526;2022-12-18T06:26:47;3.97;;;2.60;;
56413;SDS011;42318;48.452;19.526;2022-12-18T06:34:18;4.70;;;2.85;;
56413;SDS011;42318;48.452;19.526;2022-12-18T06:41:48;4.28;;;2.53;;
56413;SDS011;42318;48.452;19.526;2022-12-18T06:49:19;3.75;;;2.47;;
56413;SDS011;42318;48.452;19.526;2022-12-18T06:56:50;4.28;;;2.67;;
56413;SDS011;42318;48.452;19.526;2022-12-18T07:04:21;3.88;;;2.17;;
56413;SDS011;42318;48.452;19.526;2022-12-18T07:11:52;4.80;;;2.85;;
56413;SDS011;42318;48.452;19.526;2022-12-18T07:19:22;4.18;;;2.90;;
56413;SDS011;42318;48.452;19.526;2022-12-18T07:26:53;5.22;;;2.78;;
56413;SDS011;42318;48.452;19.526;2022-12-18T07:34:24;5.68;;;3.75;;
56413;SDS011;42318;48.452;19.526;2022-12-18T07:41:55;4.07;;;3.10;;
56413;SDS011;42318;48.452;19.526;2022-12-18T07:49:44;6.40;;;3.60;;
56413;SDS011;42318;48.452;19.526;2022-12-18T07:57:15;5.65;;;3.38;;
56413;SDS011;42318;48.452;19.526;2022-12-18T08:04:47;4.93;;;3.20;;
56413;SDS011;42318;48.452;19.526;2022-12-18T08:12:17;4.40;;;3.13;;
56413;SDS011;42318;48.452;19.526;2022-12-18T08:19:48;5.93;;;3.72;;
56413;SDS011;42318;48.452;19.526;2022-12-18T08:27:19;6.95;;;4.53;;
56413;SDS011;42318;48.452;19.526;2022-12-18T08:34:50;6.00;;;4.00;;
56413;SDS011;42318;48.452;19.526;2022-12-18T08:42:20;6.15;;;4.35;;
56413;SDS011;42318;48.452;19.526;2022-12-18T08:50:10;8.75;;;4.50;;
56413;SDS011;42318;48.452;19.526;2022-12-18T08:57:42;5.78;;;3.97;;
56413;SDS011;42318;48.452;19.526;2022-12-18T09:05:13;7.45;;;4.00;;
56413;SDS011;42318;48.452;19.526;2022-12-18T09:12:43;7.32;;;4.07;;
56413;SDS011;42318;48.452;19.526;2022-12-18T09:20:14;6.55;;;4.80;;
56413;SDS011;42318;48.452;19.526;2022-12-18T09:27:46;8.95;;;5.15;;
56413;SDS011;42318;48.452;19.526;2022-12-18T09:35:17;7.70;;;4.40;;
56413;SDS011;42318;48.452;19.526;2022-12-18T09:42:50;6.85;;;4.95;;
56413;SDS011;42318;48.452;19.526;2022-12-18T09:50:35;6.38;;;4.03;;
56413;SDS011;42318;48.452;19.526;2022-12-18T09:58:19;6.10;;;4.30;;
56413;SDS011;42318;48.452;19.526;2022-12-18T10:13:49;6.72;;;4.35;;
56413;SDS011;42318;48.452;19.526;2022-12-18T10:21:42;7.47;;;4.82;;
56413;SDS011;42318;48.452;19.526;2022-12-18T10:29:21;7.40;;;4.60;;
56413;SDS011;42318;48.452;19.526;2022-12-18T10:36:53;6.57;;;4.38;;
56413;SDS011;42318;48.452;19.526;2022-12-18T10:44:24;7.82;;;4.35;;
56413;SDS011;42318;48.452;19.526;2022-12-18T10:52:30;7.82;;;4.47;;
56413;SDS011;42318;48.452;19.526;2022-12-18T10:59:56;7.15;;;4.63;;
56413;SDS011;42318;48.452;19.526;2022-12-18T11:07:46;6.75;;;4.28;;
56413;SDS011;42318;48.452;19.526;2022-12-18T11:15:29;7.28;;;4.93;;
56413;SDS011;42318;48.452;19.526;2022-12-18T11:23:01;7.88;;;4.20;;
56413;SDS011;42318;48.452;19.526;2022-12-18T11:30:35;6.75;;;4.72;;
56413;SDS011;42318;48.452;19.526;2022-12-18T11:46:03;7.55;;;4.28;;
56413;SDS011;42318;48.452;19.526;2022-12-18T11:53:39;7.65;;;4.75;;
56413;SDS011;42318;48.452;19.526;2022-12-18T12:16:46;9.07;;;5.50;;
56413;SDS011;42318;48.452;19.526;2022-12-18T12:24:30;8.70;;;5.63;;
56413;SDS011;42318;48.452;19.526;2022-12-18T12:39:55;11.02;;;6.05;;
56413;SDS011;42318;48.452;19.526;2022-12-18T12:47:30;7.60;;;5.63;;
56413;SDS011;42318;48.452;19.526;2022-12-18T12:55:04;11.18;;;5.75;;
56413;SDS011;42318;48.452;19.526;2022-12-18T13:02:56;11.93;;;6.20;;
56413;SDS011;42318;48.452;19.526;2022-12-18T13:10:38;13.65;;;6.47;;
56413;SDS011;42318;48.452;19.526;2022-12-18T13:25:44;13.70;;;7.35;;
56413;SDS011;42318;48.452;19.526;2022-12-18T13:48:23;13.88;;;7.30;;
56413;SDS011;42318;48.452;19.526;2022-12-18T13:55:56;18.70;;;11.43;;
56413;SDS011;42318;48.452;19.526;2022-12-18T14:03:28;20.70;;;11.40;;
56413;SDS011;42318;48.452;19.526;2022-12-18T14:11:00;14.55;;;10.20;;
56413;SDS011;42318;48.452;19.526;2022-12-18T14:26:20;17.17;;;10.27;;
56413;SDS011;42318;48.452;19.526;2022-12-18T14:33:59;16.38;;;9.50;;
56413;SDS011;42318;48.452;19.526;2022-12-18T14:41:30;17.27;;;9.85;;
56413;SDS011;42318;48.452;19.526;2022-12-18T14:57:02;14.18;;;8.65;;
56413;SDS011;42318;48.452;19.526;2022-12-18T15:04:36;16.23;;;8.82;;
56413;SDS011;42318;48.452;19.526;2022-12-18T15:12:23;13.73;;;8.60;;
56413;SDS011;42318;48.452;19.526;2022-12-18T15:20:00;10.07;;;7.72;;
56413;SDS011;42318;48.452;19.526;2022-12-18T15:27:33;15.90;;;7.95;;
56413;SDS011;42318;48.452;19.526;2022-12-18T15:42:41;10.70;;;6.70;;
56413;SDS011;42318;48.452;19.526;2022-12-18T15:50:31;11.52;;;7.65;;
56413;SDS011;42318;48.452;19.526;2022-12-18T15:58:03;11.82;;;7.05;;
56413;SDS011;42318;48.452;19.526;2022-12-18T16:13:09;12.52;;;7.20;;
56413;SDS011;42318;48.452;19.526;2022-12-18T16:20:41;13.32;;;6.32;;
56413;SDS011;42318;48.452;19.526;2022-12-18T16:28:12;10.88;;;6.20;;
56413;SDS011;42318;48.452;19.526;2022-12-18T16:35:43;12.27;;;7.03;;
56413;SDS011;42318;48.452;19.526;2022-12-18T16:43:13;11.57;;;6.38;;
56413;SDS011;42318;48.452;19.526;2022-12-18T16:50:44;12.43;;;7.30;;
56413;SDS011;42318;48.452;19.526;2022-12-18T16:58:15;9.73;;;6.45;;
56413;SDS011;42318;48.452;19.526;2022-12-18T17:05:46;9.77;;;6.32;;
56413;SDS011;42318;48.452;19.526;2022-12-18T17:13:17;8.52;;;5.50;;
56413;SDS011;42318;48.452;19.526;2022-12-18T17:20:48;13.40;;;7.38;;
56413;SDS011;42318;48.452;19.526;2022-12-18T17:28:19;12.20;;;7.68;;
56413;SDS011;42318;48.452;19.526;2022-12-18T17:35:51;13.73;;;9.10;;
56413;SDS011;42318;48.452;19.526;2022-12-18T17:43:22;15.35;;;8.35;;
56413;SDS011;42318;48.452;19.526;2022-12-18T17:50:53;12.73;;;8.10;;
56413;SDS011;42318;48.452;19.526;2022-12-18T17:58:24;25.05;;;12.43;;
56413;SDS011;42318;48.452;19.526;2022-12-18T18:05:55;21.98;;;12.20;;
56413;SDS011;42318;48.452;19.526;2022-12-18T18:13:26;22.27;;;11.67;;
56413;SDS011;42318;48.452;19.526;2022-12-18T18:21:15;23.90;;;11.63;;
56413;SDS011;42318;48.452;19.526;2022-12-18T18:28:46;22.60;;;11.75;;
56413;SDS011;42318;48.452;19.526;2022-12-18T18:36:17;22.23;;;11.60;;
56413;SDS011;42318;48.452;19.526;2022-12-18T18:43:48;22.27;;;11.43;;
56413;SDS011;42318;48.452;19.526;2022-12-18T18:51:23;20.25;;;11.20;;
56413;SDS011;42318;48.452;19.526;2022-12-18T18:58:54;20.63;;;11.77;;
56413;SDS011;42318;48.452;19.526;2022-12-18T19:06:26;23.38;;;11.60;;
56413;SDS011;42318;48.452;19.526;2022-12-18T19:13:58;22.30;;;12.52;;
56413;SDS011;42318;48.452;19.526;2022-12-18T19:21:30;20.95;;;11.00;;
56413;SDS011;42318;48.452;19.526;2022-12-18T19:29:02;18.48;;;10.90;;
56413;SDS011;42318;48.452;19.526;2022-12-18T19:36:36;25.20;;;12.80;;
56413;SDS011;42318;48.452;19.526;2022-12-18T19:44:11;20.67;;;12.18;;
56413;SDS011;42318;48.452;19.526;2022-12-18T19:51:44;20.58;;;12.13;;
56413;SDS011;42318;48.452;19.526;2022-12-18T19:59:15;19.38;;;11.57;;
56413;SDS011;42318;48.452;19.526;2022-12-18T20:06:52;18.73;;;11.43;;
56413;SDS011;42318;48.452;19.526;2022-12-18T20:14:23;21.15;;;12.07;;
56413;SDS011;42318;48.452;19.526;2022-12-18T20:21:54;19.67;;;11.82;;
56413;SDS011;42318;48.452;19.526;2022-12-18T20:29:25;20.88;;;12.38;;
56413;SDS011;42318;48.452;19.526;2022-12-18T20:36:56;18.40;;;12.02;;
56413;SDS011;42318;48.452;19.526;2022-12-18T20:44:26;19.73;;;12.50;;
56413;SDS011;42318;48.452;19.526;2022-12-18T20:51:57;21.95;;;12.55;;
56413;SDS011;42318;48.452;19.526;2022-12-18T20:59:28;20.35;;;11.75;;
56413;SDS011;42318;48.452;19.526;2022-12-18T21:06:59;21.27;;;11.82;;
56413;SDS011;42318;48.452;19.526;2022-12-18T21:14:30;19.98;;;11.88;;
56413;SDS011;42318;48.452;19.526;2022-12-18T21:22:01;20.77;;;12.15;;
56413;SDS011;42318;48.452;19.526;2022-12-18T21:29:32;18.50;;;11.93;;
56413;SDS011;42318;48.452;19.526;2022-12-18T21:37:04;21.03;;;12.10;;
56413;SDS011;42318;48.452;19.526;2022-12-18T21:44:35;21.98;;;12.65;;
56413;SDS011;42318;48.452;19.526;2022-12-18T21:52:06;20.02;;;12.20;;
56413;SDS011;42318;48.452;19.526;2022-12-18T21:59:38;18.38;;;11.93;;
56413;SDS011;42318;48.452;19.526;2022-12-18T22:07:10;18.40;;;11.90;;
56413;SDS011;42318;48.452;19.526;2022-12-18T22:14:42;19.98;;;12.15;;
56413;SDS011;42318;48.452;19.526;2022-12-18T22:22:13;19.35;;;11.45;;
56413;SDS011;42318;48.452;19.526;2022-12-18T22:29:44;17.88;;;11.18;;
56413;SDS011;42318;48.452;19.526;2022-12-18T22:37:33;17.75;;;11.63;;
56413;SDS011;42318;48.452;19.526;2022-12-18T22:45:04;17.95;;;11.80;;
56413;SDS011;42318;48.452;19.526;2022-12-18T22:52:35;18.35;;;11.45;;
56413;SDS011;42318;48.452;19.526;2022-12-18T23:00:06;19.20;;;11.63;;
56413;SDS011;42318;48.452;19.526;2022-12-18T23:07:38;20.27;;;12.70;;
56413;SDS011;42318;48.452;19.526;2022-12-18T23:15:09;19.30;;;11.80;;
56413;SDS011;42318;48.452;19.526;2022-12-18T23:22:39;19.05;;;12.38;;
56413;SDS011;42318;48.452;19.526;2022-12-18T23:30:10;17.63;;;11.68;;
56413;SDS011;42318;48.452;19.526;2022-12-18T23:37:42;18.05;;;11.90;;
56413;SDS011;42318;48.452;19.526;2022-12-18T23:45:13;16.10;;;10.27;;
56413;SDS011;42318;48.452;19.526;2022-12-18T23:52:44;19.27;;;11.40;;
